首页
METAR-TAF:

METAR-TAF

机场 :

Grand Rapids/Itasca County Airport (Gordon Newstrom Field)

Grand Rapids, 明尼蘇達州, 美国

纬度: 47-13N, 经度: 093-31W, 海拔: 413米

当前天气观测

该预报发布于55分钟前的20:56 UTC
风速14节,风向,有时为19节阵风
温度 11°C
湿度 20%
气压 1011 hPa
能見度: 16.1公里
天空无云

METAR: KGPZ 292056Z AUTO 35014G19KT 10SM CLR 11/M11 A2984 RMK AO2 PK WND 34028/2042 SLP117 T01111106 53026

时间: 16:51 (21:51 UTC)


TAF: 丢失

超过4000个机场的气象观测和天气预报(METAR&TAF报告)。

可查询的气象台以黄色和红色小点在地图上表示。

将鼠标移到小点上方,可查看气象台名称。

然后点击查看天气观测和预报。

如需切换地图:点击带黑十字的绿色按钮放大地图;点击带横线的绿色按钮缩小地图;或者点击绿色箭头查看邻近地区的地图。


METAR-TAF: